Time;durP1;ratioP1;P1;durP2;ratioP2;P2;SDS_P1;SDS_P2;PMS_P1;PMS_P2;Temp;Humidity;BMP_temperature;BMP_pressure;BME280_temperature;BME280_humidity;BME280_pressure;Samples;Min_cycle;Max_cycle;Signal;HPM_P1;HPM_P2
2023/04/06 00:00:51;;;;;;;6.53;5.82;;;4.10;99.90;;;;;;5072957;28;20131;-61
2023/04/06 00:03:18;;;;;;;8.25;6.38;;;4.10;99.90;;;;;;5089641;28;20630;-62
2023/04/06 00:05:43;;;;;;;7.28;5.95;;;4.10;99.90;;;;;;5082553;28;20097;-61
2023/04/06 00:08:09;;;;;;;6.78;6.07;;;4.00;99.90;;;;;;5098143;28;20040;-62
2023/04/06 00:10:35;;;;;;;7.15;6.30;;;4.00;99.90;;;;;;5097687;28;20067;-61
2023/04/06 00:13:00;;;;;;;7.93;5.70;;;4.00;99.90;;;;;;5091106;28;20035;-61
2023/04/06 00:15:26;;;;;;;6.95;5.90;;;4.00;99.90;;;;;;5091067;28;20040;-62
2023/04/06 00:17:52;;;;;;;7.88;6.65;;;3.90;99.90;;;;;;5093120;28;20540;-61
2023/04/06 00:20:18;;;;;;;8.70;6.10;;;3.90;99.90;;;;;;5090101;28;20028;-61
2023/04/06 00:22:44;;;;;;;6.82;6.13;;;3.90;99.90;;;;;;5091500;28;20536;-61
2023/04/06 00:25:10;;;;;;;7.65;6.78;;;3.80;99.90;;;;;;5092384;28;20031;-61
2023/04/06 00:27:37;;;;;;;8.75;6.35;;;3.80;99.90;;;;;;5098051;28;20050;-61
2023/04/06 00:30:04;;;;;;;9.40;6.53;;;3.70;99.90;;;;;;5109578;28;20040;-61
2023/04/06 00:32:30;;;;;;;7.85;6.60;;;3.70;99.90;;;;;;5092231;28;20052;-61
2023/04/06 00:34:56;;;;;;;11.50;7.07;;;3.70;99.90;;;;;;5093909;28;20401;-61
2023/04/06 00:37:22;;;;;;;8.50;6.38;;;3.70;99.90;;;;;;5096961;28;20520;-62
2023/04/06 00:39:47;;;;;;;9.25;6.25;;;3.70;99.90;;;;;;5100790;28;20559;-62
2023/04/06 00:42:13;;;;;;;8.70;7.07;;;3.60;99.90;;;;;;5091204;28;20047;-62
2023/04/06 00:44:40;;;;;;;10.05;7.30;;;3.60;99.90;;;;;;5091817;28;20374;-62
2023/04/06 00:47:06;;;;;;;7.85;6.47;;;3.60;99.90;;;;;;5091847;28;20039;-62
2023/04/06 00:49:33;;;;;;;7.15;6.45;;;3.60;99.90;;;;;;5082647;28;20043;-62
2023/04/06 00:51:58;;;;;;;9.55;7.03;;;3.60;99.90;;;;;;5091546;28;20038;-62
2023/04/06 00:54:24;;;;;;;9.95;6.85;;;3.50;99.90;;;;;;5071217;28;20035;-61
2023/04/06 00:56:50;;;;;;;8.93;6.70;;;3.60;99.90;;;;;;5078111;28;20051;-62
2023/04/06 00:59:16;;;;;;;8.18;6.90;;;3.60;99.90;;;;;;5091794;28;20028;-62
2023/04/06 01:01:41;;;;;;;9.15;7.07;;;3.60;99.90;;;;;;5073483;28;20035;-62
2023/04/06 01:04:07;;;;;;;10.05;7.38;;;3.50;99.90;;;;;;5084585;28;20497;-62
2023/04/06 01:06:32;;;;;;;7.90;7.07;;;3.50;99.90;;;;;;5102994;28;20480;-62
2023/04/06 01:08:58;;;;;;;8.90;6.85;;;3.50;99.90;;;;;;5093557;28;20038;-62
2023/04/06 01:11:23;;;;;;;9.25;7.35;;;3.50;99.90;;;;;;5095499;28;20088;-62
2023/04/06 01:13:49;;;;;;;8.82;6.57;;;3.40;99.90;;;;;;5101869;28;20040;-62
2023/04/06 01:16:15;;;;;;;9.18;6.85;;;3.40;99.90;;;;;;5084646;28;20481;-62
2023/04/06 01:18:42;;;;;;;8.88;6.95;;;3.30;99.90;;;;;;5089681;28;20114;-62
2023/04/06 01:21:08;;;;;;;7.43;6.50;;;3.30;99.90;;;;;;5096427;28;20032;-62
2023/04/06 01:23:34;;;;;;;8.40;6.60;;;3.20;99.90;;;;;;5097892;28;20123;-62
2023/04/06 01:26:00;;;;;;;8.75;6.65;;;3.10;99.90;;;;;;5090181;28;20177;-62
2023/04/06 01:28:25;;;;;;;8.50;6.30;;;3.10;99.90;;;;;;5089528;28;20458;-62
2023/04/06 01:33:19;;;;;;;10.18;7.05;;;3.00;99.90;;;;;;4989262;28;20054;-60
2023/04/06 01:35:44;;;;;;;9.20;6.90;;;3.00;99.90;;;;;;4998768;28;20045;-60
2023/04/06 01:38:10;;;;;;;8.85;6.50;;;3.00;99.90;;;;;;5000994;28;20038;-61
2023/04/06 01:40:35;;;;;;;10.45;6.90;;;2.90;99.90;;;;;;4990707;28;20057;-60
2023/04/06 01:43:01;;;;;;;10.02;6.65;;;2.90;99.90;;;;;;4987897;28;20073;-61
2023/04/06 01:45:26;;;;;;;10.73;7.00;;;2.90;99.90;;;;;;4980165;28;20058;-61
2023/04/06 01:47:52;;;;;;;9.70;6.90;;;2.90;99.90;;;;;;4976916;28;20129;-60
2023/04/06 01:50:17;;;;;;;9.70;7.05;;;2.80;99.90;;;;;;4974560;28;20121;-60
2023/04/06 01:52:43;;;;;;;9.25;7.00;;;2.80;99.90;;;;;;4965472;28;20055;-60
2023/04/06 01:55:09;;;;;;;11.27;6.85;;;2.70;99.90;;;;;;4969751;28;20043;-60
2023/04/06 01:57:34;;;;;;;12.32;7.25;;;2.70;99.90;;;;;;4984881;28;20052;-61
2023/04/06 02:00:00;;;;;;;8.10;6.72;;;2.70;99.90;;;;;;4978792;28;20031;-60
2023/04/06 02:02:26;;;;;;;8.48;6.70;;;2.60;99.90;;;;;;4973393;28;20038;-60
2023/04/06 02:04:51;;;;;;;6.78;6.10;;;2.60;99.90;;;;;;4976973;28;20409;-61
2023/04/06 02:07:17;;;;;;;8.68;7.10;;;2.60;99.90;;;;;;4956607;28;20085;-61
2023/04/06 02:09:42;;;;;;;9.65;7.15;;;2.60;99.90;;;;;;4982409;28;20456;-61
2023/04/06 02:12:08;;;;;;;8.65;7.18;;;2.50;99.90;;;;;;4972679;28;20485;-61
2023/04/06 02:14:33;;;;;;;10.60;6.97;;;2.50;99.90;;;;;;4966978;28;20116;-61
2023/04/06 02:16:59;;;;;;;10.02;7.10;;;2.50;99.90;;;;;;4967879;28;20480;-61
2023/04/06 02:19:24;;;;;;;9.65;7.03;;;2.50;99.90;;;;;;4973665;28;20445;-61
2023/04/06 02:21:50;;;;;;;8.20;6.80;;;2.50;99.90;;;;;;4969891;28;20486;-61
2023/04/06 02:24:16;;;;;;;8.77;6.45;;;2.50;99.90;;;;;;4978935;28;20085;-61
2023/04/06 02:26:41;;;;;;;10.02;6.97;;;2.50;99.90;;;;;;4966169;28;20045;-61
2023/04/06 02:29:07;;;;;;;10.30;7.43;;;2.50;99.90;;;;;;4957850;28;20100;-61
2023/04/06 02:31:32;;;;;;;8.98;7.35;;;2.50;99.90;;;;;;4978740;28;20046;-61
2023/04/06 02:33:58;;;;;;;9.27;6.47;;;2.50;99.90;;;;;;4982863;28;20046;-61
2023/04/06 02:36:23;;;;;;;10.07;7.45;;;2.50;99.90;;;;;;4983127;28;20057;-60
2023/04/06 02:38:49;;;;;;;9.48;7.15;;;2.50;99.90;;;;;;4974798;28;20046;-60
2023/04/06 02:41:15;;;;;;;9.85;7.45;;;2.50;99.90;;;;;;4960634;28;20038;-61
2023/04/06 02:43:40;;;;;;;9.93;6.90;;;2.50;99.90;;;;;;4979215;28;20057;-61
2023/04/06 02:46:06;;;;;;;8.32;6.60;;;2.40;99.90;;;;;;4981096;28;20415;-61
2023/04/06 02:48:31;;;;;;;9.48;6.75;;;2.40;99.90;;;;;;4991796;28;20034;-61
2023/04/06 02:50:57;;;;;;;8.07;6.80;;;2.30;99.90;;;;;;4985115;28;20042;-61
2023/04/06 02:53:22;;;;;;;8.15;6.50;;;2.20;99.90;;;;;;4978627;28;20119;-62
2023/04/06 02:55:48;;;;;;;8.00;6.93;;;2.20;99.90;;;;;;4966980;28;20264;-61
2023/04/06 02:58:13;;;;;;;9.05;6.57;;;2.20;99.90;;;;;;4972485;28;20093;-61
2023/04/06 03:00:39;;;;;;;8.43;6.43;;;2.10;99.90;;;;;;4984714;28;20136;-61
2023/04/06 03:03:05;;;;;;;8.90;7.10;;;2.10;99.90;;;;;;4983598;28;20046;-61
2023/04/06 03:05:30;;;;;;;11.80;7.43;;;2.10;99.90;;;;;;4982123;28;20444;-61
2023/04/06 03:07:56;;;;;;;11.27;8.00;;;2.00;99.90;;;;;;4982539;28;20558;-61
2023/04/06 03:10:21;;;;;;;11.63;7.38;;;2.00;99.90;;;;;;4976732;28;20034;-61
2023/04/06 03:12:47;;;;;;;10.43;7.47;;;2.10;99.90;;;;;;4976694;28;20078;-61
2023/04/06 03:15:12;;;;;;;10.15;7.68;;;2.00;99.90;;;;;;4957926;28;20404;-61
2023/04/06 03:17:38;;;;;;;10.05;7.85;;;2.00;99.90;;;;;;4982540;28;20030;-61
2023/04/06 03:20:05;;;;;;;10.40;7.68;;;2.00;99.90;;;;;;4978348;28;20416;-61
2023/04/06 03:22:30;;;;;;;11.30;7.47;;;2.00;99.90;;;;;;4970396;28;20031;-61
2023/04/06 03:24:56;;;;;;;9.80;7.15;;;2.00;99.90;;;;;;4985352;28;20050;-61
2023/04/06 03:27:21;;;;;;;10.10;7.28;;;2.00;99.90;;;;;;4959462;28;20093;-61
2023/04/06 03:29:47;;;;;;;10.00;7.63;;;2.00;99.90;;;;;;4977751;28;20108;-61
2023/04/06 03:32:12;;;;;;;10.07;7.63;;;2.00;99.90;;;;;;4990136;28;20053;-61
2023/04/06 03:34:38;;;;;;;9.57;7.80;;;1.90;99.90;;;;;;4986262;28;20084;-62
2023/04/06 03:37:04;;;;;;;10.52;6.95;;;1.90;99.90;;;;;;4974987;28;20042;-61
2023/04/06 03:39:30;;;;;;;11.15;7.85;;;1.90;99.90;;;;;;4992295;28;20038;-62
2023/04/06 03:41:55;;;;;;;9.30;7.35;;;1.90;99.90;;;;;;4986949;28;20038;-61
2023/04/06 03:44:21;;;;;;;10.00;7.68;;;1.90;99.90;;;;;;4969029;28;20030;-61
2023/04/06 03:46:47;;;;;;;9.40;7.47;;;1.90;99.90;;;;;;4976008;28;20096;-61
2023/04/06 03:49:12;;;;;;;11.38;8.25;;;1.90;99.90;;;;;;4992442;28;20511;-61
2023/04/06 03:51:38;;;;;;;11.07;7.90;;;1.80;99.90;;;;;;4985126;28;20389;-62
2023/04/06 03:54:04;;;;;;;11.13;7.65;;;1.80;99.90;;;;;;4972201;28;20551;-61
2023/04/06 03:56:29;;;;;;;11.80;7.95;;;1.80;99.90;;;;;;4974721;28;20509;-61
2023/04/06 03:58:55;;;;;;;9.48;7.72;;;1.80;99.90;;;;;;4959422;28;20389;-61
2023/04/06 04:01:20;;;;;;;13.18;8.38;;;1.80;99.90;;;;;;4977717;28;20034;-61
2023/04/06 04:03:46;;;;;;;11.68;7.53;;;1.80;99.90;;;;;;4968228;28;20038;-61
2023/04/06 04:06:11;;;;;;;10.35;7.47;;;1.80;99.90;;;;;;4979091;28;20038;-61
2023/04/06 04:08:37;;;;;;;9.82;7.50;;;1.80;99.90;;;;;;4991233;28;20519;-62
2023/04/06 04:11:02;;;;;;;10.07;7.78;;;1.80;99.90;;;;;;4983345;28;20516;-61
2023/04/06 04:13:28;;;;;;;12.85;8.25;;;1.70;99.90;;;;;;4979350;28;20093;-61
2023/04/06 04:15:54;;;;;;;10.48;7.95;;;1.80;99.90;;;;;;4989714;28;20061;-61
2023/04/06 04:18:19;;;;;;;11.65;8.63;;;1.80;99.90;;;;;;4980849;28;20034;-62
2023/04/06 04:20:46;;;;;;;11.13;8.43;;;1.80;99.90;;;;;;4967960;28;20489;-61
2023/04/06 04:23:11;;;;;;;12.00;8.57;;;1.80;99.90;;;;;;4965642;28;20492;-61
2023/04/06 04:25:37;;;;;;;12.27;8.57;;;1.80;99.90;;;;;;4951611;28;20047;-61
2023/04/06 04:28:02;;;;;;;11.52;8.57;;;1.80;99.90;;;;;;4954077;28;20124;-62
2023/04/06 04:30:28;;;;;;;12.82;8.60;;;1.80;99.90;;;;;;4972465;28;20034;-61
2023/04/06 04:32:54;;;;;;;11.57;8.48;;;1.80;99.90;;;;;;4989002;28;20065;-61
2023/04/06 04:35:19;;;;;;;14.20;8.88;;;1.80;99.90;;;;;;4973705;28;20370;-61
2023/04/06 04:37:45;;;;;;;14.32;8.75;;;1.80;99.90;;;;;;4979521;28;20523;-61
2023/04/06 04:40:11;;;;;;;12.93;7.97;;;1.80;99.90;;;;;;4969212;28;20130;-61
2023/04/06 04:42:37;;;;;;;12.82;8.48;;;1.90;99.90;;;;;;4980736;28;20054;-61
2023/04/06 04:45:02;;;;;;;13.02;8.73;;;1.80;99.90;;;;;;4976129;28;20069;-61
2023/04/06 04:47:28;;;;;;;12.95;8.68;;;1.80;99.90;;;;;;4977868;28;20102;-61
2023/04/06 04:49:53;;;;;;;12.48;8.95;;;1.80;99.90;;;;;;4965702;28;20055;-61
2023/04/06 04:52:19;;;;;;;16.48;8.77;;;1.70;99.90;;;;;;4989528;28;20046;-61
2023/04/06 04:54:46;;;;;;;14.00;9.30;;;1.70;99.90;;;;;;4982354;28;20061;-61
2023/04/06 04:57:12;;;;;;;14.82;8.95;;;1.80;99.90;;;;;;4976451;28;20097;-61
2023/04/06 04:59:38;;;;;;;11.90;8.85;;;1.70;99.90;;;;;;4992882;28;20073;-61
2023/04/06 05:02:03;;;;;;;14.48;9.52;;;1.70;99.90;;;;;;4987372;28;20034;-61
2023/04/06 05:04:29;;;;;;;13.02;8.60;;;1.70;99.90;;;;;;4992927;28;20129;-61
2023/04/06 05:07:10;;;;;;;13.68;9.13;;;1.70;99.90;;;;;;4983795;28;20172;-61
2023/04/06 05:09:36;;;;;;;12.80;8.90;;;1.80;99.90;;;;;;4976362;28;20043;-61
2023/04/06 05:12:01;;;;;;;14.80;9.80;;;1.70;99.90;;;;;;4981032;28;20092;-61
2023/04/06 05:14:27;;;;;;;14.07;10.25;;;1.70;99.90;;;;;;4981749;28;20386;-61
2023/04/06 05:16:54;;;;;;;12.80;8.75;;;1.80;99.90;;;;;;4974106;28;20038;-61
2023/04/06 05:19:19;;;;;;;13.13;9.50;;;1.80;99.90;;;;;;4963748;28;20031;-61
2023/04/06 05:21:45;;;;;;;14.13;9.30;;;1.70;99.90;;;;;;4975639;28;20045;-61
2023/04/06 05:24:10;;;;;;;14.50;9.07;;;1.80;99.90;;;;;;4980909;28;20072;-61
2023/04/06 05:26:36;;;;;;;14.23;9.35;;;1.70;99.90;;;;;;4966732;28;20109;-61
2023/04/06 05:29:02;;;;;;;14.48;9.63;;;1.80;99.90;;;;;;4978086;28;20038;-61
2023/04/06 05:31:28;;;;;;;14.93;9.68;;;1.80;99.90;;;;;;4985813;28;20049;-61
2023/04/06 05:33:55;;;;;;;12.90;9.45;;;1.80;99.90;;;;;;4957851;28;20066;-61
2023/04/06 05:36:20;;;;;;;12.65;9.60;;;1.80;99.90;;;;;;4977566;28;20506;-61
2023/04/06 05:38:46;;;;;;;15.63;10.10;;;1.80;99.90;;;;;;4975775;28;20042;-61
2023/04/06 05:41:11;;;;;;;12.57;9.15;;;1.90;99.90;;;;;;4959605;28;20042;-61
2023/04/06 05:43:37;;;;;;;13.52;9.63;;;1.90;99.90;;;;;;4975525;28;20038;-61
2023/04/06 05:46:02;;;;;;;14.77;9.65;;;1.90;99.90;;;;;;4986810;28;20050;-61
2023/04/06 05:48:28;;;;;;;14.95;9.77;;;1.90;99.90;;;;;;4987542;28;20038;-61
2023/04/06 05:50:54;;;;;;;12.30;9.98;;;1.90;99.90;;;;;;4962927;28;20050;-61
2023/04/06 05:53:21;;;;;;;16.38;10.43;;;2.00;99.90;;;;;;4973742;28;20043;-61
2023/04/06 05:55:46;;;;;;;12.15;9.52;;;2.00;99.90;;;;;;4969674;28;20050;-61
2023/04/06 05:58:12;;;;;;;13.27;9.15;;;2.00;99.90;;;;;;4978237;28;20038;-61
2023/04/06 06:00:38;;;;;;;15.27;10.43;;;2.10;99.90;;;;;;4967990;28;20026;-61
2023/04/06 06:03:05;;;;;;;15.18;10.32;;;2.10;99.90;;;;;;4960920;28;20034;-62
2023/04/06 06:05:31;;;;;;;15.65;10.52;;;2.10;99.90;;;;;;4978007;28;20538;-61
2023/04/06 06:07:56;;;;;;;13.60;10.18;;;2.10;99.90;;;;;;4971002;28;20094;-61
2023/04/06 06:10:22;;;;;;;14.63;9.98;;;2.20;99.90;;;;;;4973243;28;20171;-62
2023/04/06 06:12:47;;;;;;;14.95;10.88;;;2.30;99.90;;;;;;4982906;28;20039;-61
2023/04/06 06:15:13;;;;;;;16.02;11.65;;;2.30;99.90;;;;;;4978065;28;20123;-61
2023/04/06 06:17:39;;;;;;;19.15;10.35;;;2.40;99.90;;;;;;4969841;28;20043;-61
2023/04/06 06:20:08;;;;;;;14.13;10.20;;;2.40;99.90;;;;;;4980477;28;20465;-61
2023/04/06 06:22:33;;;;;;;13.35;10.13;;;2.50;99.90;;;;;;4971693;28;20035;-61
2023/04/06 06:24:59;;;;;;;14.82;10.35;;;2.50;99.90;;;;;;4977877;28;20065;-61
2023/04/06 06:27:25;;;;;;;15.50;10.57;;;2.60;99.90;;;;;;4976900;28;20507;-61
2023/04/06 06:29:50;;;;;;;15.38;11.23;;;2.70;99.90;;;;;;4973090;28;20038;-61
2023/04/06 06:32:16;;;;;;;15.55;10.90;;;2.70;99.90;;;;;;4977851;28;20072;-61
2023/04/06 06:34:41;;;;;;;24.35;14.77;;;2.80;99.90;;;;;;4982666;28;20074;-61
2023/04/06 06:37:07;;;;;;;19.10;12.25;;;2.80;99.90;;;;;;4979552;28;20042;-61
2023/04/06 06:39:32;;;;;;;20.27;13.30;;;2.90;99.90;;;;;;4983459;28;20477;-61
2023/04/06 06:42:01;;;;;;;17.55;12.40;;;3.00;99.90;;;;;;4980077;28;20044;-61
2023/04/06 06:44:26;;;;;;;16.27;11.52;;;3.00;99.90;;;;;;4986121;28;20400;-61
2023/04/06 06:46:52;;;;;;;19.58;11.93;;;3.10;99.90;;;;;;4987934;28;20046;-61
2023/04/06 06:49:18;;;;;;;17.60;11.98;;;3.10;99.90;;;;;;4981736;28;20066;-62
2023/04/06 06:51:44;;;;;;;14.70;11.73;;;3.20;99.90;;;;;;4992006;28;20042;-61
2023/04/06 06:54:09;;;;;;;18.55;11.57;;;3.30;99.90;;;;;;4980153;28;20034;-61
2023/04/06 06:56:37;;;;;;;20.70;11.70;;;3.40;99.90;;;;;;4981733;28;20452;-61
2023/04/06 06:59:03;;;;;;;20.23;12.05;;;3.50;99.90;;;;;;4988851;28;20046;-61
2023/04/06 07:01:29;;;;;;;15.15;11.82;;;3.70;99.90;;;;;;4985805;28;20105;-61
2023/04/06 07:03:55;;;;;;;16.95;11.98;;;3.90;99.90;;;;;;4982657;28;20586;-62
2023/04/06 07:06:20;;;;;;;19.50;11.25;;;4.00;99.90;;;;;;4978655;28;20333;-61
2023/04/06 07:08:46;;;;;;;17.83;11.50;;;4.20;99.90;;;;;;4970173;28;20129;-61
2023/04/06 07:11:12;;;;;;;14.98;11.55;;;4.30;99.90;;;;;;4957466;28;20070;-61
2023/04/06 07:13:37;;;;;;;19.88;12.10;;;4.50;99.90;;;;;;4980510;28;20035;-61
2023/04/06 07:16:03;;;;;;;18.73;11.70;;;4.60;99.90;;;;;;4983254;28;20042;-61
2023/04/06 07:18:28;;;;;;;18.27;12.02;;;4.60;99.90;;;;;;4978752;28;20374;-61
2023/04/06 07:20:54;;;;;;;21.88;12.73;;;4.70;99.90;;;;;;4979580;28;20049;-61
2023/04/06 07:23:20;;;;;;;17.00;11.63;;;4.80;99.90;;;;;;4981570;28;20030;-61
2023/04/06 07:25:46;;;;;;;18.63;12.38;;;4.90;99.90;;;;;;4988859;28;20034;-61
2023/04/06 07:28:11;;;;;;;16.88;12.05;;;5.00;99.90;;;;;;4983203;28;20088;-61
2023/04/06 07:30:38;;;;;;;19.42;12.55;;;5.10;99.90;;;;;;4983017;28;20041;-61
2023/04/06 07:33:05;;;;;;;19.13;12.23;;;5.20;99.90;;;;;;5031099;22;20048;-63
2023/04/06 07:35:30;;;;;;;18.20;12.05;;;5.30;99.90;;;;;;5010454;28;20046;-63
2023/04/06 07:37:57;;;;;;;15.82;11.27;;;5.40;99.90;;;;;;5031752;28;20037;-63
2023/04/06 07:40:22;;;;;;;19.20;11.98;;;5.60;99.90;;;;;;5033023;28;20117;-63
2023/04/06 07:42:48;;;;;;;17.92;12.27;;;5.70;99.90;;;;;;5047181;28;20614;-63
2023/04/06 07:45:15;;;;;;;16.02;12.38;;;5.80;99.90;;;;;;5051594;28;20043;-63
2023/04/06 07:47:41;;;;;;;19.80;12.70;;;6.00;99.90;;;;;;5049507;28;20104;-62
2023/04/06 07:50:07;;;;;;;16.52;11.35;;;6.10;99.90;;;;;;5051210;28;20139;-61
2023/04/06 07:52:32;;;;;;;16.42;11.85;;;6.30;99.90;;;;;;5035026;28;20029;-61
2023/04/06 07:54:58;;;;;;;17.13;12.13;;;6.50;99.90;;;;;;5052611;28;20104;-62
2023/04/06 07:57:24;;;;;;;16.83;11.93;;;6.60;99.90;;;;;;5052646;28;20048;-61
2023/04/06 07:59:50;;;;;;;17.70;12.25;;;6.80;99.90;;;;;;5053336;28;20511;-62
2023/04/06 08:02:15;;;;;;;15.68;11.07;;;6.90;99.90;;;;;;5050646;28;20036;-62
2023/04/06 08:04:41;;;;;;;19.20;12.48;;;7.00;99.90;;;;;;5034573;28;20059;-62
2023/04/06 08:07:06;;;;;;;16.55;12.00;;;7.20;99.90;;;;;;5054794;28;20041;-61
2023/04/06 08:09:32;;;;;;;21.25;12.35;;;7.20;99.90;;;;;;5051334;28;20039;-61
2023/04/06 08:11:58;;;;;;;19.00;12.15;;;7.30;99.90;;;;;;5049483;28;20044;-61
2023/04/06 08:14:24;;;;;;;17.40;12.27;;;7.40;99.90;;;;;;5051575;28;20049;-61
2023/04/06 08:16:49;;;;;;;16.33;11.60;;;7.50;99.90;;;;;;5051137;28;20045;-61
2023/04/06 08:19:17;;;;;;;21.23;12.65;;;7.60;99.90;;;;;;5042177;28;20127;-61
2023/04/06 08:21:43;;;;;;;17.42;12.73;;;7.80;99.90;;;;;;5052549;28;20108;-61
2023/04/06 08:24:08;;;;;;;17.45;11.45;;;7.90;99.90;;;;;;5044470;28;20055;-61
2023/04/06 08:26:34;;;;;;;19.88;13.10;;;8.00;99.90;;;;;;5051183;28;20487;-61
2023/04/06 08:29:00;;;;;;;18.52;13.13;;;8.10;99.90;;;;;;5051897;28;20394;-61
2023/04/06 08:31:26;;;;;;;17.88;11.73;;;8.20;99.90;;;;;;5048473;28;20044;-62
2023/04/06 08:33:51;;;;;;;17.55;11.75;;;8.40;99.90;;;;;;5052364;28;20541;-61
2023/04/06 08:36:22;;;;;;;18.35;12.13;;;8.50;99.90;;;;;;5061465;28;20175;-62
2023/04/06 08:38:49;;;;;;;22.20;12.25;;;8.60;99.90;;;;;;5050899;28;20036;-62
2023/04/06 08:41:16;;;;;;;18.23;11.68;;;8.70;99.90;;;;;;5033641;28;20053;-62
2023/04/06 08:43:48;;;;;;;18.67;12.35;;;8.90;99.90;;;;;;5049983;28;20487;-63
2023/04/06 08:46:14;;;;;;;20.17;12.35;;;9.00;99.90;;;;;;5044153;28;20032;-62
2023/04/06 08:48:41;;;;;;;16.38;11.95;;;9.10;99.90;;;;;;5050214;28;20482;-62
2023/04/06 08:51:08;;;;;;;20.00;12.88;;;9.30;99.90;;;;;;5045071;28;20041;-62
2023/04/06 08:53:34;;;;;;;19.17;11.68;;;9.40;99.90;;;;;;5050325;28;20167;-62
2023/04/06 08:56:01;;;;;;;16.48;11.48;;;9.50;99.90;;;;;;5051433;28;20120;-62
2023/04/06 08:58:31;;;;;;;17.77;12.10;;;9.60;99.70;;;;;;5050288;28;20536;-62
2023/04/06 09:00:58;;;;;;;16.90;11.88;;;9.60;99.50;;;;;;5050860;28;20056;-62
2023/04/06 09:03:25;;;;;;;17.10;10.48;;;9.70;99.30;;;;;;5049184;28;20041;-62
2023/04/06 09:05:51;;;;;;;16.02;11.48;;;9.70;97.40;;;;;;5064278;28;20068;-62
2023/04/06 09:08:17;;;;;;;21.35;12.63;;;9.70;97.10;;;;;;5061476;28;20117;-62
2023/04/06 09:10:42;;;;;;;17.98;13.40;;;9.80;97.80;;;;;;5056785;28;20049;-62
2023/04/06 09:13:08;;;;;;;20.92;12.23;;;9.90;97.90;;;;;;5049880;28;20044;-62
2023/04/06 09:15:35;;;;;;;18.73;13.07;;;9.90;97.00;;;;;;5050674;28;20122;-63
2023/04/06 09:18:01;;;;;;;19.23;12.18;;;9.80;96.40;;;;;;5046099;28;20079;-62
2023/04/06 09:20:28;;;;;;;19.73;12.75;;;9.80;96.50;;;;;;5056500;28;20029;-62
2023/04/06 09:22:54;;;;;;;22.70;12.40;;;9.70;98.50;;;;;;5044818;28;20536;-62
2023/04/06 09:25:22;;;;;;;19.90;13.25;;;9.70;98.30;;;;;;5043075;28;20029;-62
2023/04/06 09:27:57;;;;;;;22.30;13.32;;;9.70;98.40;;;;;;5058691;28;20044;-62
2023/04/06 09:30:24;;;;;;;20.88;13.23;;;9.80;99.20;;;;;;5061090;28;20066;-62
2023/04/06 09:32:52;;;;;;;20.88;13.05;;;9.90;99.00;;;;;;5049092;28;20517;-62
2023/04/06 09:35:22;;;;;;;24.50;14.73;;;9.90;97.40;;;;;;5048066;28;20056;-62
2023/04/06 09:37:49;;;;;;;28.00;15.32;;;9.80;96.10;;;;;;5049892;28;20037;-62
2023/04/06 09:40:17;;;;;;;24.92;15.20;;;9.80;94.80;;;;;;5063219;28;20079;-62
2023/04/06 09:42:46;;;;;;;24.13;14.80;;;9.80;93.60;;;;;;5050556;28;20394;-62
2023/04/06 09:45:11;;;;;;;28.42;15.15;;;9.80;92.90;;;;;;5046772;28;20033;-63
2023/04/06 09:47:40;;;;;;;25.02;15.95;;;9.80;92.40;;;;;;5058770;28;20086;-63
2023/04/06 09:50:07;;;;;;;22.58;14.63;;;9.80;92.60;;;;;;5032988;28;20513;-62
2023/04/06 09:52:37;;;;;;;24.20;15.65;;;9.90;94.00;;;;;;5050716;28;20483;-63
2023/04/06 09:55:04;;;;;;;25.38;14.02;;;9.90;94.10;;;;;;5052955;28;20045;-63
2023/04/06 09:57:44;;;;;;;26.48;15.32;;;10.00;93.50;;;;;;5051453;28;20032;-63
2023/04/06 10:00:14;;;;;;;22.98;14.73;;;10.10;92.50;;;;;;5025470;28;20044;-62
2023/04/06 10:03:06;;;;;;;22.75;14.93;;;10.00;92.30;;;;;;5049139;28;20043;-63
2023/04/06 10:05:50;;;;;;;26.33;15.40;;;10.10;92.30;;;;;;5050934;28;20036;-63
2023/04/06 10:08:17;;;;;;;23.85;15.80;;;10.10;92.00;;;;;;5059697;28;20445;-63
2023/04/06 10:10:42;;;;;;;26.13;15.68;;;10.20;92.00;;;;;;5050480;28;20123;-62
2023/04/06 10:13:11;;;;;;;27.17;16.15;;;10.30;92.10;;;;;;5057479;28;20028;-62
2023/04/06 10:15:38;;;;;;;26.80;16.15;;;10.40;91.80;;;;;;5055469;28;20037;-62
2023/04/06 10:18:04;;;;;;;25.98;16.52;;;10.50;91.80;;;;;;5056889;28;20627;-62
2023/04/06 10:20:46;;;;;;;25.25;16.27;;;10.70;91.20;;;;;;5058663;28;20083;-62
2023/04/06 10:23:26;;;;;;;23.80;15.55;;;10.70;89.70;;;;;;5062165;28;20039;-62
2023/04/06 10:25:59;;;;;;;26.35;15.55;;;10.70;86.40;;;;;;5060051;28;20047;-63
2023/04/06 10:28:26;;;;;;;26.40;16.05;;;10.70;85.00;;;;;;5060143;28;20540;-62
2023/04/06 10:30:59;;;;;;;27.27;16.52;;;10.70;84.50;;;;;;5054183;28;20037;-62
2023/04/06 10:33:24;;;;;;;23.65;15.35;;;10.80;86.70;;;;;;5053703;28;20041;-62
2023/04/06 10:35:50;;;;;;;24.83;15.52;;;10.80;87.70;;;;;;5052773;28;20048;-62
2023/04/06 10:38:20;;;;;;;25.50;16.63;;;11.00;87.20;;;;;;5071519;28;20035;-62
2023/04/06 10:40:49;;;;;;;25.17;16.58;;;11.10;87.90;;;;;;5056042;28;20094;-62
2023/04/06 10:43:21;;;;;;;27.45;16.67;;;11.20;88.20;;;;;;5048434;28;20032;-62
2023/04/06 10:46:00;;;;;;;23.50;14.48;;;11.40;85.50;;;;;;5051108;28;20124;-62
2023/04/06 10:48:43;;;;;;;25.65;16.73;;;11.50;84.50;;;;;;5053096;28;20393;-62
2023/04/06 10:51:14;;;;;;;26.23;16.60;;;11.60;85.90;;;;;;5046101;28;20060;-62
2023/04/06 10:53:43;;;;;;;25.20;16.42;;;11.70;82.20;;;;;;5054319;28;20044;-63
2023/04/06 10:56:13;;;;;;;28.45;17.15;;;11.90;81.00;;;;;;5057504;28;20064;-62
2023/04/06 10:58:45;;;;;;;26.25;16.58;;;12.10;82.20;;;;;;5058540;28;20072;-63
2023/04/06 11:01:11;;;;;;;29.17;16.67;;;12.20;78.70;;;;;;5054026;28;20036;-63
2023/04/06 11:03:50;;;;;;;28.65;18.02;;;12.20;76.70;;;;;;5045114;28;20160;-63
2023/04/06 11:06:20;;;;;;;29.70;18.48;;;12.20;75.30;;;;;;5051120;28;20029;-62
2023/04/06 11:08:46;;;;;;;31.88;19.50;;;12.20;74.60;;;;;;5063112;28;20047;-63
2023/04/06 11:11:18;;;;;;;29.92;17.92;;;12.20;74.40;;;;;;5074245;28;20044;-63
2023/04/06 11:13:49;;;;;;;26.50;17.38;;;12.10;73.00;;;;;;5071816;28;20115;-63
2023/04/06 11:16:20;;;;;;;27.63;18.95;;;12.00;70.30;;;;;;5052742;28;20079;-63
2023/04/06 11:18:49;;;;;;;29.10;18.35;;;11.80;71.40;;;;;;5052878;28;20048;-63
2023/04/06 11:21:15;;;;;;;32.15;18.77;;;11.80;71.90;;;;;;5066458;28;20037;-63
2023/04/06 11:23:40;;;;;;;36.03;20.02;;;11.80;71.50;;;;;;5063901;28;20029;-63
2023/04/06 11:26:11;;;;;;;30.67;19.52;;;11.70;71.80;;;;;;5061622;28;20544;-63
2023/04/06 11:28:37;;;;;;;34.00;19.65;;;11.80;70.10;;;;;;5053880;28;20044;-64
2023/04/06 11:31:02;;;;;;;33.70;20.02;;;11.80;71.60;;;;;;5052962;28;20116;-64
2023/04/06 11:33:28;;;;;;;34.72;20.20;;;11.80;71.30;;;;;;5051022;28;20040;-63
2023/04/06 11:35:57;;;;;;;32.40;20.00;;;11.90;71.40;;;;;;5061557;28;20048;-63
2023/04/06 11:38:22;;;;;;;35.45;21.50;;;11.90;71.50;;;;;;5060186;28;20509;-63
2023/04/06 11:40:53;;;;;;;33.75;21.30;;;11.90;72.40;;;;;;5060907;28;20033;-63
2023/04/06 11:43:34;;;;;;;35.67;21.10;;;11.90;72.10;;;;;;5050603;28;20040;-63
2023/04/06 11:46:02;;;;;;;33.50;20.10;;;11.90;69.80;;;;;;5065336;28;20047;-63
2023/04/06 11:48:28;;;;;;;34.53;20.45;;;11.80;69.00;;;;;;5037920;28;20053;-63
2023/04/06 11:51:00;;;;;;;36.42;20.15;;;11.90;68.90;;;;;;5053216;28;20044;-63
2023/04/06 11:53:26;;;;;;;35.50;21.58;;;11.90;67.60;;;;;;5053135;28;20052;-63
2023/04/06 11:55:52;;;;;;;34.20;21.20;;;11.90;68.20;;;;;;5048413;28;20613;-63
2023/04/06 11:58:17;;;;;;;37.53;21.25;;;11.90;68.70;;;;;;5052130;28;20116;-63
2023/04/06 12:00:45;;;;;;;35.72;20.50;;;11.90;68.60;;;;;;5061782;28;20110;-63
2023/04/06 12:03:11;;;;;;;33.10;19.38;;;12.00;69.00;;;;;;5052691;28;20036;-63
2023/04/06 12:05:37;;;;;;;32.10;19.70;;;12.00;68.00;;;;;;5060318;28;20045;-63
2023/04/06 12:08:03;;;;;;;38.67;21.20;;;12.00;66.20;;;;;;5066792;28;20048;-63
2023/04/06 12:10:29;;;;;;;34.60;20.27;;;12.00;66.00;;;;;;5064545;28;20086;-63
2023/04/06 12:12:55;;;;;;;33.40;20.00;;;12.00;66.80;;;;;;5034323;28;20090;-63
2023/04/06 12:15:21;;;;;;;36.05;18.63;;;12.10;68.60;;;;;;5049351;28;20043;-63
2023/04/06 12:17:46;;;;;;;35.15;20.48;;;12.20;66.80;;;;;;5047398;28;20440;-63
2023/04/06 12:20:13;;;;;;;35.53;21.58;;;12.20;64.60;;;;;;5042265;28;20033;-63
2023/04/06 12:22:38;;;;;;;35.53;20.13;;;12.20;65.40;;;;;;5047844;28;20087;-63
2023/04/06 12:25:06;;;;;;;29.73;18.75;;;12.30;65.00;;;;;;5045519;28;20059;-63
2023/04/06 12:27:32;;;;;;;31.10;19.38;;;12.30;64.10;;;;;;5050426;28;20041;-63
2023/04/06 12:29:58;;;;;;;30.30;19.08;;;12.30;62.50;;;;;;5052982;28;20045;-63
2023/04/06 12:32:24;;;;;;;34.05;19.08;;;12.30;63.20;;;;;;5053426;28;20036;-63
2023/04/06 12:34:52;;;;;;;31.27;19.20;;;12.30;61.80;;;;;;5042102;28;20029;-63
2023/04/06 12:37:17;;;;;;;28.88;17.63;;;12.30;61.80;;;;;;5060430;28;20372;-63
2023/04/06 12:39:44;;;;;;;31.58;18.70;;;12.40;62.20;;;;;;5065558;28;20040;-63